createdAt,value
2023-06-17T00:00:54.805Z,17.58
2023-06-17T00:03:45.012Z,17.68
2023-06-17T00:06:30.847Z,17.59
2023-06-17T00:09:21.380Z,17.83
2023-06-17T00:12:07.184Z,17.78
2023-06-17T00:14:54.494Z,17.91
2023-06-17T00:17:45.977Z,17.90
2023-06-17T00:20:33.938Z,18.18
2023-06-17T00:23:23.182Z,18.11
2023-06-17T00:26:09.782Z,18.02
2023-06-17T00:28:55.851Z,18.13
2023-06-17T00:31:41.879Z,18.15
2023-06-17T00:34:27.406Z,18.18
2023-06-17T00:37:13.773Z,18.20
2023-06-17T00:39:59.602Z,18.15
2023-06-17T00:42:45.911Z,17.98
2023-06-17T00:45:39.823Z,18.17
2023-06-17T00:48:26.163Z,18.20
2023-06-17T00:51:12.917Z,18.02
2023-06-17T00:54:00.096Z,18.02
2023-06-17T00:56:45.732Z,18.15
2023-06-17T00:59:33.832Z,18.03
2023-06-17T01:02:21.081Z,17.86
2023-06-17T01:05:12.818Z,18.06
2023-06-17T01:08:18.172Z,18.02
2023-06-17T01:11:14.414Z,18.02
2023-06-17T01:14:01.135Z,18.02
2023-06-17T01:16:52.086Z,18.02
2023-06-17T01:19:39.283Z,18.04
2023-06-17T01:22:25.437Z,18.01
2023-06-17T01:25:14.250Z,17.99
2023-06-17T01:28:04.787Z,17.99
2023-06-17T01:30:55.978Z,18.01
2023-06-17T01:33:42.872Z,17.99
2023-06-17T01:36:34.409Z,17.84
2023-06-17T01:39:21.517Z,17.82
2023-06-17T01:42:13.324Z,17.68
2023-06-17T01:45:01.385Z,17.88
2023-06-17T01:47:47.411Z,17.76
2023-06-17T01:50:33.736Z,17.79
2023-06-17T01:53:20.117Z,17.74
2023-06-17T01:56:07.123Z,17.65
2023-06-17T01:58:53.153Z,17.71
2023-06-17T02:01:39.587Z,17.59
2023-06-17T02:04:25.858Z,17.72
2023-06-17T02:07:12.189Z,17.74
2023-06-17T02:09:58.593Z,17.62
2023-06-17T02:12:45.718Z,17.83
2023-06-17T02:15:32.952Z,17.86
2023-06-17T02:18:20.074Z,17.83
2023-06-17T02:21:05.736Z,17.86
2023-06-17T02:23:53.108Z,17.87
2023-06-17T02:26:38.890Z,17.84
2023-06-17T02:29:28.255Z,17.80
2023-06-17T02:32:14.504Z,17.85
2023-06-17T02:35:01.011Z,17.85
2023-06-17T02:37:47.105Z,17.82
2023-06-17T02:40:33.255Z,17.43
2023-06-17T02:43:19.556Z,17.75
2023-06-17T02:46:05.420Z,17.63
2023-06-17T02:48:52.427Z,17.46
2023-06-17T02:51:39.618Z,17.52
2023-06-17T02:54:25.636Z,17.39
2023-06-17T02:57:11.748Z,17.46
2023-06-17T02:59:57.603Z,17.57
2023-06-17T03:02:43.821Z,17.26
2023-06-17T03:05:31.342Z,17.63
2023-06-17T03:08:19.290Z,17.53
2023-06-17T03:11:06.456Z,17.73
2023-06-17T03:13:54.343Z,17.62
2023-06-17T03:16:47.948Z,17.59
2023-06-17T03:19:34.566Z,17.87
2023-06-17T03:22:20.789Z,17.67
2023-06-17T03:25:09.175Z,17.93
2023-06-17T03:27:56.299Z,17.91
2023-06-17T03:30:42.423Z,17.78
2023-06-17T03:33:29.490Z,17.73
2023-06-17T03:36:18.674Z,17.54
2023-06-17T03:39:04.713Z,17.56
2023-06-17T03:41:53.916Z,17.62
2023-06-17T03:44:40.473Z,17.53
2023-06-17T03:47:26.431Z,17.79
2023-06-17T03:50:13.018Z,17.75
2023-06-17T03:52:59.619Z,17.69
2023-06-17T03:55:45.912Z,17.56
2023-06-17T03:58:31.896Z,17.83
2023-06-17T04:01:17.620Z,17.83
2023-06-17T04:04:03.746Z,17.85
2023-06-17T04:06:49.673Z,17.88
2023-06-17T04:09:35.872Z,17.93
2023-06-17T04:12:22.149Z,17.90
2023-06-17T04:15:09.619Z,17.87
2023-06-17T04:17:58.073Z,17.77
2023-06-17T04:20:46.195Z,17.95
2023-06-17T04:23:32.241Z,17.96
2023-06-17T04:26:20.198Z,17.99
2023-06-17T04:29:06.666Z,18.10
2023-06-17T04:31:56.150Z,18.44
2023-06-17T04:34:49.049Z,19.01
2023-06-17T04:37:37.935Z,19.21
2023-06-17T04:40:24.775Z,19.69
2023-06-17T04:43:11.370Z,19.93
2023-06-17T04:45:57.913Z,20.15
2023-06-17T04:48:47.740Z,20.34
2023-06-17T04:51:39.470Z,20.53
2023-06-17T04:54:26.700Z,20.71
2023-06-17T04:57:13.056Z,20.78
2023-06-17T04:59:59.151Z,20.93
2023-06-17T05:02:46.408Z,20.96
2023-06-17T05:05:32.860Z,20.94
2023-06-17T05:08:18.953Z,20.78
2023-06-17T05:11:04.933Z,20.88
2023-06-17T05:13:54.052Z,20.67
2023-06-17T05:16:40.637Z,20.77
2023-06-17T05:19:27.016Z,20.74
2023-06-17T05:22:13.319Z,20.85
2023-06-17T05:25:00.266Z,20.73
2023-06-17T05:27:47.121Z,20.90
2023-06-17T05:30:33.997Z,20.93
2023-06-17T05:33:23.779Z,20.90
2023-06-17T05:36:09.992Z,21.18
2023-06-17T05:38:56.937Z,21.31
2023-06-17T05:41:42.946Z,21.36
2023-06-17T05:44:29.079Z,21.37
2023-06-17T05:47:15.813Z,21.20
2023-06-17T05:50:02.211Z,21.43
2023-06-17T05:52:48.539Z,21.43
2023-06-17T05:55:35.211Z,21.57
2023-06-17T05:58:21.436Z,21.68
2023-06-17T06:01:15.332Z,21.70
2023-06-17T06:04:01.472Z,21.73
2023-06-17T06:06:47.795Z,21.68
2023-06-17T06:09:34.447Z,21.86
2023-06-17T06:12:21.269Z,21.90
2023-06-17T06:15:07.567Z,21.80
2023-06-17T06:17:54.591Z,21.92
2023-06-17T06:20:40.623Z,21.87
2023-06-17T06:23:27.067Z,21.94
2023-06-17T06:26:13.324Z,22.01
2023-06-17T06:28:59.218Z,21.97
2023-06-17T06:31:45.391Z,22.03
2023-06-17T06:34:34.259Z,22.10
2023-06-17T06:37:20.549Z,22.30
2023-06-17T06:40:07.612Z,22.36
2023-06-17T06:42:55.684Z,22.25
2023-06-17T06:45:46.304Z,22.39
2023-06-17T06:48:32.293Z,22.43
2023-06-17T06:51:19.002Z,22.34
2023-06-17T06:54:06.083Z,22.43
2023-06-17T06:56:52.240Z,22.75
2023-06-17T06:59:38.679Z,22.68
2023-06-17T07:02:25.288Z,22.78
2023-06-17T07:05:11.750Z,22.84
2023-06-17T07:08:03.511Z,22.65
2023-06-17T07:10:49.375Z,22.29
2023-06-17T07:13:36.007Z,22.32
2023-06-17T07:16:24.836Z,22.61
2023-06-17T07:19:13.043Z,22.70
2023-06-17T07:21:59.203Z,22.79
2023-06-17T07:24:46.836Z,22.76
2023-06-17T07:27:32.338Z,22.65
2023-06-17T07:30:21.040Z,22.74
2023-06-17T07:33:07.130Z,22.69
2023-06-17T07:35:53.742Z,22.75
2023-06-17T07:38:39.572Z,22.82
2023-06-17T07:41:26.297Z,23.06
2023-06-17T07:44:11.839Z,23.01
2023-06-17T07:47:01.151Z,23.28
2023-06-17T07:49:47.291Z,23.32
2023-06-17T07:53:12.125Z,23.39
2023-06-17T07:55:57.806Z,23.39
2023-06-17T07:58:45.169Z,23.25
2023-06-17T08:01:31.349Z,23.15
2023-06-17T08:04:17.439Z,23.24
2023-06-17T08:07:04.910Z,23.68
2023-06-17T08:10:16.598Z,23.80
2023-06-17T08:13:07.701Z,23.99
2023-06-17T08:16:26.421Z,24.06
2023-06-17T08:19:19.744Z,23.77
2023-06-17T08:22:07.608Z,24.12
2023-06-17T08:24:54.560Z,24.19
2023-06-17T08:27:43.743Z,24.03
2023-06-17T08:30:29.171Z,24.05
2023-06-17T08:33:16.187Z,23.91
2023-06-17T08:36:01.913Z,23.90
2023-06-17T08:38:48.180Z,24.07
2023-06-17T08:41:39.059Z,23.91
2023-06-17T08:44:27.420Z,23.90
2023-06-17T08:47:17.159Z,24.05
2023-06-17T08:50:04.192Z,23.87
2023-06-17T08:52:50.787Z,23.43
2023-06-17T08:55:38.864Z,23.54
2023-06-17T08:58:24.559Z,23.75
2023-06-17T09:01:11.874Z,23.79
2023-06-17T09:03:58.174Z,23.87
2023-06-17T09:06:45.609Z,23.90
2023-06-17T09:09:31.895Z,23.92
2023-06-17T09:12:45.102Z,23.94
2023-06-17T09:16:03.388Z,24.02
2023-06-17T09:19:24.995Z,23.95
2023-06-17T09:28:23.651Z,23.92
2023-06-17T09:45:13.729Z,23.59
2023-06-17T09:49:02.394Z,23.55
2023-06-17T10:14:10.386Z,24.62
2023-06-17T10:25:40.651Z,24.92
2023-06-17T10:44:51.024Z,24.17
2023-06-17T11:11:19.355Z,22.88
2023-06-17T11:14:23.133Z,23.12
2023-06-17T11:18:30.900Z,23.13
2023-06-17T11:27:48.010Z,22.86
2023-06-17T18:44:01.249Z,19.65
2023-06-17T18:46:47.484Z,19.59
2023-06-17T18:49:40.864Z,19.66
2023-06-17T18:52:27.093Z,19.65
2023-06-17T18:55:13.737Z,19.54
2023-06-17T18:58:03.628Z,19.61
2023-06-17T19:00:49.951Z,19.63
2023-06-17T19:03:36.840Z,19.65
2023-06-17T19:06:23.165Z,19.64
2023-06-17T19:09:08.694Z,19.64
2023-06-17T19:12:01.153Z,19.62
2023-06-17T19:14:47.049Z,19.59
2023-06-17T19:17:33.031Z,19.44
2023-06-17T19:20:19.486Z,19.60
2023-06-17T19:23:06.224Z,19.38
2023-06-17T19:25:52.216Z,19.55
2023-06-17T19:28:38.235Z,19.50
2023-06-17T19:31:25.815Z,19.49
2023-06-17T19:34:12.126Z,19.43
2023-06-17T19:36:58.174Z,19.31
2023-06-17T19:39:44.494Z,19.12
2023-06-17T19:42:30.435Z,18.93
2023-06-17T19:45:16.961Z,18.86
2023-06-17T19:48:02.867Z,19.07
2023-06-17T19:50:49.135Z,19.17
2023-06-17T19:53:35.189Z,19.03
2023-06-17T19:56:21.792Z,19.25
2023-06-17T19:59:07.836Z,19.21
2023-06-17T20:01:54.312Z,19.24
2023-06-17T20:04:40.321Z,19.23
2023-06-17T20:07:26.738Z,19.22
2023-06-17T20:10:12.402Z,19.26
2023-06-17T20:12:59.388Z,19.27
2023-06-17T20:15:45.717Z,19.20
2023-06-17T20:18:32.156Z,19.04
2023-06-17T20:21:18.357Z,19.24
2023-06-17T20:24:05.137Z,18.91
2023-06-17T20:26:51.129Z,19.17
2023-06-17T20:29:37.021Z,19.22
2023-06-17T20:32:22.834Z,18.99
2023-06-17T20:35:11.039Z,19.14
2023-06-17T20:37:57.810Z,19.00
2023-06-17T20:40:43.849Z,18.91
2023-06-17T20:43:30.073Z,19.15
2023-06-17T20:46:16.923Z,19.05
2023-06-17T20:49:03.004Z,19.11
2023-06-17T20:51:49.297Z,18.89
2023-06-17T20:54:35.419Z,18.93
2023-06-17T20:57:21.313Z,18.94
2023-06-17T21:00:07.549Z,19.05
2023-06-17T21:02:54.130Z,19.05
2023-06-17T21:05:40.552Z,19.03
2023-06-17T21:08:26.805Z,18.99
2023-06-17T21:11:12.929Z,18.70
2023-06-17T21:14:01.712Z,18.79
2023-06-17T21:16:47.302Z,18.97
2023-06-17T21:19:33.610Z,18.82
2023-06-17T21:22:19.150Z,18.86
2023-06-17T21:25:06.103Z,18.74
2023-06-17T21:27:51.874Z,18.59
2023-06-17T21:30:38.035Z,18.89
2023-06-17T21:33:25.357Z,18.90
2023-06-17T21:36:11.623Z,18.75
2023-06-17T21:38:57.518Z,18.87
2023-06-17T21:41:43.827Z,18.89
2023-06-17T21:44:30.796Z,18.85
2023-06-17T21:47:18.436Z,18.87
2023-06-17T21:50:04.732Z,18.69
2023-06-17T21:52:50.887Z,18.84
2023-06-17T21:55:36.614Z,18.58
2023-06-17T21:58:22.606Z,18.61
2023-06-17T22:01:08.318Z,18.58
2023-06-17T22:03:54.560Z,18.47
2023-06-17T22:06:40.787Z,18.57
2023-06-17T22:09:26.960Z,18.61
2023-06-17T22:12:12.450Z,18.53
2023-06-17T22:15:01.889Z,18.68
2023-06-17T22:17:51.342Z,18.58
2023-06-17T22:20:37.598Z,18.65
2023-06-17T22:23:23.395Z,18.61
2023-06-17T22:26:09.426Z,18.66
2023-06-17T22:28:54.864Z,18.66
2023-06-17T22:31:41.078Z,18.59
2023-06-17T22:34:26.954Z,18.61
2023-06-17T22:37:13.106Z,18.61
2023-06-17T22:39:59.106Z,18.61
2023-06-17T22:42:45.426Z,18.60
2023-06-17T22:45:30.783Z,18.60
2023-06-17T22:48:17.240Z,18.59
2023-06-17T22:51:03.264Z,18.39
2023-06-17T22:53:49.721Z,18.53
2023-06-17T22:56:35.619Z,18.44
2023-06-17T22:59:23.006Z,18.50
2023-06-17T23:02:08.768Z,18.49
2023-06-17T23:04:54.613Z,18.52
2023-06-17T23:07:40.264Z,18.47
2023-06-17T23:10:26.897Z,18.16
2023-06-17T23:13:12.409Z,18.31
2023-06-17T23:15:59.113Z,18.36
2023-06-17T23:18:44.654Z,18.33
2023-06-17T23:21:31.188Z,18.15
2023-06-17T23:24:17.807Z,17.90
2023-06-17T23:27:05.311Z,17.99
2023-06-17T23:29:55.245Z,18.08
2023-06-17T23:32:41.421Z,18.18
2023-06-17T23:35:27.411Z,18.19
2023-06-17T23:38:13.679Z,18.04
2023-06-17T23:40:59.911Z,18.09
2023-06-17T23:43:46.217Z,18.12
2023-06-17T23:46:33.303Z,18.12
2023-06-17T23:49:19.719Z,18.11
2023-06-17T23:52:07.256Z,18.02
2023-06-17T23:54:53.925Z,18.27
2023-06-17T23:57:39.471Z,18.27
